sensor_id;sensor_type;location;lat;lon;timestamp;temperature;humidity
11387;DHT22;5748;53.102;8.456;2024-03-08T00:02:15;5.10;60.00
11387;DHT22;5748;53.102;8.456;2024-03-08T00:04:42;5.20;60.20
11387;DHT22;5748;53.102;8.456;2024-03-08T00:07:10;5.30;60.30
11387;DHT22;5748;53.102;8.456;2024-03-08T00:09:39;5.10;60.10
11387;DHT22;5748;53.102;8.456;2024-03-08T00:12:06;5.10;60.00
11387;DHT22;5748;53.102;8.456;2024-03-08T00:14:33;5.10;60.00
11387;DHT22;5748;53.102;8.456;2024-03-08T00:17:00;5.10;59.90
11387;DHT22;5748;53.102;8.456;2024-03-08T00:19:30;5.10;59.90
11387;DHT22;5748;53.102;8.456;2024-03-08T00:21:57;5.10;59.90
11387;DHT22;5748;53.102;8.456;2024-03-08T00:24:24;7.10;61.70
11387;DHT22;5748;53.102;8.456;2024-03-08T00:26:51;5.10;59.80
11387;DHT22;5748;53.102;8.456;2024-03-08T00:29:19;5.00;59.30
11387;DHT22;5748;53.102;8.456;2024-03-08T00:31:47;5.00;59.70
11387;DHT22;5748;53.102;8.456;2024-03-08T00:34:14;5.00;59.70
11387;DHT22;5748;53.102;8.456;2024-03-08T00:36:43;5.00;59.70
11387;DHT22;5748;53.102;8.456;2024-03-08T00:39:11;4.90;59.60
11387;DHT22;5748;53.102;8.456;2024-03-08T00:41:41;4.90;59.20
11387;DHT22;5748;53.102;8.456;2024-03-08T00:44:10;4.90;59.60
11387;DHT22;5748;53.102;8.456;2024-03-08T00:46:37;4.90;59.60
11387;DHT22;5748;53.102;8.456;2024-03-08T00:49:04;4.80;59.60
11387;DHT22;5748;53.102;8.456;2024-03-08T00:51:32;4.90;59.70
11387;DHT22;5748;53.102;8.456;2024-03-08T00:54:00;4.80;59.60
11387;DHT22;5748;53.102;8.456;2024-03-08T00:56:27;5.10;59.90
11387;DHT22;5748;53.102;8.456;2024-03-08T00:58:54;4.80;59.60
11387;DHT22;5748;53.102;8.456;2024-03-08T01:01:22;4.70;59.60
11387;DHT22;5748;53.102;8.456;2024-03-08T01:03:50;4.70;59.70
11387;DHT22;5748;53.102;8.456;2024-03-08T01:06:17;4.70;59.70
11387;DHT22;5748;53.102;8.456;2024-03-08T01:08:45;4.70;59.70
11387;DHT22;5748;53.102;8.456;2024-03-08T01:11:14;4.90;59.90
11387;DHT22;5748;53.102;8.456;2024-03-08T01:13:41;5.90;60.80
11387;DHT22;5748;53.102;8.456;2024-03-08T01:16:08;4.90;59.90
11387;DHT22;5748;53.102;8.456;2024-03-08T01:18:35;5.10;60.20
11387;DHT22;5748;53.102;8.456;2024-03-08T01:21:03;4.60;59.70
11387;DHT22;5748;53.102;8.456;2024-03-08T01:23:30;4.60;60.60
11387;DHT22;5748;53.102;8.456;2024-03-08T01:25:57;4.70;59.90
11387;DHT22;5748;53.102;8.456;2024-03-08T01:28:26;5.40;60.50
11387;DHT22;5748;53.102;8.456;2024-03-08T01:30:53;4.50;59.70
11387;DHT22;5748;53.102;8.456;2024-03-08T01:33:22;4.50;59.40
11387;DHT22;5748;53.102;8.456;2024-03-08T01:35:51;4.50;59.80
11387;DHT22;5748;53.102;8.456;2024-03-08T01:38:18;4.50;59.70
11387;DHT22;5748;53.102;8.456;2024-03-08T01:40:46;4.50;59.70
11387;DHT22;5748;53.102;8.456;2024-03-08T01:43:18;4.50;60.40
11387;DHT22;5748;53.102;8.456;2024-03-08T01:45:47;4.50;59.90
11387;DHT22;5748;53.102;8.456;2024-03-08T01:48:15;5.10;60.30
11387;DHT22;5748;53.102;8.456;2024-03-08T01:50:43;4.50;59.90
11387;DHT22;5748;53.102;8.456;2024-03-08T01:53:10;4.50;59.90
11387;DHT22;5748;53.102;8.456;2024-03-08T01:55:38;4.40;59.90
11387;DHT22;5748;53.102;8.456;2024-03-08T01:58:06;4.40;60.00
11387;DHT22;5748;53.102;8.456;2024-03-08T02:00:34;4.40;59.90
11387;DHT22;5748;53.102;8.456;2024-03-08T02:03:03;4.40;59.90
11387;DHT22;5748;53.102;8.456;2024-03-08T02:05:31;4.40;59.90
11387;DHT22;5748;53.102;8.456;2024-03-08T02:07:58;4.40;59.90
11387;DHT22;5748;53.102;8.456;2024-03-08T02:10:26;4.80;60.10
11387;DHT22;5748;53.102;8.456;2024-03-08T02:12:53;4.40;59.80
11387;DHT22;5748;53.102;8.456;2024-03-08T02:15:20;4.40;59.80
11387;DHT22;5748;53.102;8.456;2024-03-08T02:17:47;2.70;58.40
11387;DHT22;5748;53.102;8.456;2024-03-08T02:20:16;4.40;59.80
11387;DHT22;5748;53.102;8.456;2024-03-08T02:22:46;4.40;59.90
11387;DHT22;5748;53.102;8.456;2024-03-08T02:25:13;4.30;59.70
11387;DHT22;5748;53.102;8.456;2024-03-08T02:27:41;4.30;59.90
11387;DHT22;5748;53.102;8.456;2024-03-08T02:30:09;4.40;59.90
11387;DHT22;5748;53.102;8.456;2024-03-08T02:32:38;7.20;62.30
11387;DHT22;5748;53.102;8.456;2024-03-08T02:35:05;5.00;60.60
11387;DHT22;5748;53.102;8.456;2024-03-08T02:37:32;4.30;59.90
11387;DHT22;5748;53.102;8.456;2024-03-08T02:40:01;4.30;59.90
11387;DHT22;5748;53.102;8.456;2024-03-08T02:42:28;4.40;60.00
11387;DHT22;5748;53.102;8.456;2024-03-08T02:44:55;4.10;59.30
11387;DHT22;5748;53.102;8.456;2024-03-08T02:47:22;4.70;60.30
11387;DHT22;5748;53.102;8.456;2024-03-08T02:49:49;4.20;59.50
11387;DHT22;5748;53.102;8.456;2024-03-08T02:54:47;4.20;59.50
11387;DHT22;5748;53.102;8.456;2024-03-08T02:57:16;4.40;60.10
11387;DHT22;5748;53.102;8.456;2024-03-08T02:59:44;4.20;59.90
11387;DHT22;5748;53.102;8.456;2024-03-08T03:02:11;4.20;59.90
11387;DHT22;5748;53.102;8.456;2024-03-08T03:04:39;4.20;59.90
11387;DHT22;5748;53.102;8.456;2024-03-08T03:07:06;4.50;60.10
11387;DHT22;5748;53.102;8.456;2024-03-08T03:09:33;4.50;60.10
11387;DHT22;5748;53.102;8.456;2024-03-08T03:12:00;4.40;60.10
11387;DHT22;5748;53.102;8.456;2024-03-08T03:14:29;4.50;60.20
11387;DHT22;5748;53.102;8.456;2024-03-08T03:16:56;4.10;59.90
11387;DHT22;5748;53.102;8.456;2024-03-08T03:19:23;4.70;60.40
11387;DHT22;5748;53.102;8.456;2024-03-08T03:21:50;4.10;59.90
11387;DHT22;5748;53.102;8.456;2024-03-08T03:24:18;4.00;59.90
11387;DHT22;5748;53.102;8.456;2024-03-08T03:26:46;4.00;59.80
11387;DHT22;5748;53.102;8.456;2024-03-08T03:29:15;4.00;59.80
11387;DHT22;5748;53.102;8.456;2024-03-08T03:31:43;4.00;59.90
11387;DHT22;5748;53.102;8.456;2024-03-08T03:34:12;4.00;59.90
11387;DHT22;5748;53.102;8.456;2024-03-08T03:36:39;4.00;59.90
11387;DHT22;5748;53.102;8.456;2024-03-08T03:39:08;4.00;59.90
11387;DHT22;5748;53.102;8.456;2024-03-08T03:41:38;4.40;60.30
11387;DHT22;5748;53.102;8.456;2024-03-08T03:44:05;6.80;62.70
11387;DHT22;5748;53.102;8.456;2024-03-08T03:46:33;3.90;60.00
11387;DHT22;5748;53.102;8.456;2024-03-08T03:49:02;4.00;60.10
11387;DHT22;5748;53.102;8.456;2024-03-08T03:51:30;4.10;60.20
11387;DHT22;5748;53.102;8.456;2024-03-08T03:53:57;3.90;60.10
11387;DHT22;5748;53.102;8.456;2024-03-08T03:56:25;3.80;59.70
11387;DHT22;5748;53.102;8.456;2024-03-08T03:58:53;4.40;60.70
11387;DHT22;5748;53.102;8.456;2024-03-08T04:01:20;3.80;60.10
11387;DHT22;5748;53.102;8.456;2024-03-08T04:03:47;4.00;60.30
11387;DHT22;5748;53.102;8.456;2024-03-08T04:06:15;4.20;60.50
11387;DHT22;5748;53.102;8.456;2024-03-08T04:08:42;3.80;60.90
11387;DHT22;5748;53.102;8.456;2024-03-08T04:11:09;3.80;60.20
11387;DHT22;5748;53.102;8.456;2024-03-08T04:13:37;4.10;60.50
11387;DHT22;5748;53.102;8.456;2024-03-08T04:16:04;3.80;60.20
11387;DHT22;5748;53.102;8.456;2024-03-08T04:18:33;3.70;60.30
11387;DHT22;5748;53.102;8.456;2024-03-08T04:21:01;3.70;60.30
11387;DHT22;5748;53.102;8.456;2024-03-08T04:23:29;3.70;60.30
11387;DHT22;5748;53.102;8.456;2024-03-08T04:25:56;4.30;60.90
11387;DHT22;5748;53.102;8.456;2024-03-08T04:28:24;4.10;60.70
11387;DHT22;5748;53.102;8.456;2024-03-08T04:30:51;4.40;61.00
11387;DHT22;5748;53.102;8.456;2024-03-08T04:33:18;4.10;60.70
11387;DHT22;5748;53.102;8.456;2024-03-08T04:35:47;3.70;60.40
11387;DHT22;5748;53.102;8.456;2024-03-08T04:38:14;3.60;60.50
11387;DHT22;5748;53.102;8.456;2024-03-08T04:40:43;3.70;60.60
11387;DHT22;5748;53.102;8.456;2024-03-08T04:43:10;3.60;60.50
11387;DHT22;5748;53.102;8.456;2024-03-08T04:45:37;3.60;60.60
11387;DHT22;5748;53.102;8.456;2024-03-08T04:48:05;3.60;60.60
11387;DHT22;5748;53.102;8.456;2024-03-08T04:50:33;3.60;60.80
11387;DHT22;5748;53.102;8.456;2024-03-08T04:53:00;3.90;61.00
11387;DHT22;5748;53.102;8.456;2024-03-08T04:55:28;3.60;60.80
11387;DHT22;5748;53.102;8.456;2024-03-08T04:57:57;3.60;60.80
11387;DHT22;5748;53.102;8.456;2024-03-08T05:00:24;3.70;60.90
11387;DHT22;5748;53.102;8.456;2024-03-08T05:02:51;3.60;60.80
11387;DHT22;5748;53.102;8.456;2024-03-08T05:05:19;3.60;60.80
11387;DHT22;5748;53.102;8.456;2024-03-08T05:07:46;3.60;61.00
11387;DHT22;5748;53.102;8.456;2024-03-08T05:10:13;3.60;61.00
11387;DHT22;5748;53.102;8.456;2024-03-08T05:12:43;3.60;60.80
11387;DHT22;5748;53.102;8.456;2024-03-08T05:15:11;3.60;60.90
11387;DHT22;5748;53.102;8.456;2024-03-08T05:17:38;4.30;61.50
11387;DHT22;5748;53.102;8.456;2024-03-08T05:20:06;4.10;61.40
11387;DHT22;5748;53.102;8.456;2024-03-08T05:22:37;3.60;60.80
11387;DHT22;5748;53.102;8.456;2024-03-08T05:25:06;3.60;61.10
11387;DHT22;5748;53.102;8.456;2024-03-08T05:27:34;3.50;61.00
11387;DHT22;5748;53.102;8.456;2024-03-08T05:30:02;4.20;61.60
11387;DHT22;5748;53.102;8.456;2024-03-08T05:32:31;3.50;60.60
11387;DHT22;5748;53.102;8.456;2024-03-08T05:34:58;3.50;61.10
11387;DHT22;5748;53.102;8.456;2024-03-08T05:37:25;3.50;61.00
11387;DHT22;5748;53.102;8.456;2024-03-08T05:39:52;3.50;61.10
11387;DHT22;5748;53.102;8.456;2024-03-08T05:42:19;3.70;61.40
11387;DHT22;5748;53.102;8.456;2024-03-08T05:44:46;4.90;62.60
11387;DHT22;5748;53.102;8.456;2024-03-08T05:47:15;3.80;61.60
11387;DHT22;5748;53.102;8.456;2024-03-08T05:49:45;4.20;61.90
11387;DHT22;5748;53.102;8.456;2024-03-08T05:52:12;3.50;61.30
11387;DHT22;5748;53.102;8.456;2024-03-08T05:54:39;3.50;61.50
11387;DHT22;5748;53.102;8.456;2024-03-08T05:57:08;3.50;61.50
11387;DHT22;5748;53.102;8.456;2024-03-08T05:59:35;4.00;61.90
11387;DHT22;5748;53.102;8.456;2024-03-08T06:02:02;3.50;61.60
11387;DHT22;5748;53.102;8.456;2024-03-08T06:04:30;3.80;61.80
11387;DHT22;5748;53.102;8.456;2024-03-08T06:06:58;3.50;61.60
11387;DHT22;5748;53.102;8.456;2024-03-08T06:09:25;4.00;62.00
11387;DHT22;5748;53.102;8.456;2024-03-08T06:11:52;3.50;61.50
11387;DHT22;5748;53.102;8.456;2024-03-08T06:14:19;3.50;61.70
11387;DHT22;5748;53.102;8.456;2024-03-08T06:16:46;3.50;61.60
11387;DHT22;5748;53.102;8.456;2024-03-08T06:19:15;3.60;61.70
11387;DHT22;5748;53.102;8.456;2024-03-08T06:21:42;4.10;62.30
11387;DHT22;5748;53.102;8.456;2024-03-08T06:24:11;3.70;61.80
11387;DHT22;5748;53.102;8.456;2024-03-08T06:26:38;3.60;61.70
11387;DHT22;5748;53.102;8.456;2024-03-08T06:29:05;3.60;61.80
11387;DHT22;5748;53.102;8.456;2024-03-08T06:31:33;3.60;61.80
11387;DHT22;5748;53.102;8.456;2024-03-08T06:34:00;4.10;62.30
11387;DHT22;5748;53.102;8.456;2024-03-08T06:36:27;3.60;61.80
11387;DHT22;5748;53.102;8.456;2024-03-08T06:38:54;3.60;61.80
11387;DHT22;5748;53.102;8.456;2024-03-08T06:41:24;3.60;61.90
11387;DHT22;5748;53.102;8.456;2024-03-08T06:43:52;3.70;62.00
11387;DHT22;5748;53.102;8.456;2024-03-08T06:46:23;3.70;62.10
11387;DHT22;5748;53.102;8.456;2024-03-08T06:48:50;3.70;62.20
11387;DHT22;5748;53.102;8.456;2024-03-08T06:51:17;3.80;62.20
11387;DHT22;5748;53.102;8.456;2024-03-08T06:56:12;3.80;61.70
11387;DHT22;5748;53.102;8.456;2024-03-08T06:58:41;4.70;63.10
11387;DHT22;5748;53.102;8.456;2024-03-08T07:01:08;4.00;62.40
11387;DHT22;5748;53.102;8.456;2024-03-08T07:03:41;4.10;62.50
11387;DHT22;5748;53.102;8.456;2024-03-08T07:06:10;4.10;62.70
11387;DHT22;5748;53.102;8.456;2024-03-08T07:08:37;4.90;63.40
11387;DHT22;5748;53.102;8.456;2024-03-08T07:11:04;4.70;63.00
11387;DHT22;5748;53.102;8.456;2024-03-08T07:13:31;4.50;62.90
11387;DHT22;5748;53.102;8.456;2024-03-08T07:15:59;4.40;62.80
11387;DHT22;5748;53.102;8.456;2024-03-08T07:18:26;4.90;63.30
11387;DHT22;5748;53.102;8.456;2024-03-08T07:20:55;4.50;62.80
11387;DHT22;5748;53.102;8.456;2024-03-08T07:23:22;4.60;62.90
11387;DHT22;5748;53.102;8.456;2024-03-08T07:26:07;4.70;62.80
11387;DHT22;5748;53.102;8.456;2024-03-08T07:28:35;3.00;61.10
11387;DHT22;5748;53.102;8.456;2024-03-08T07:31:04;4.90;62.80
11387;DHT22;5748;53.102;8.456;2024-03-08T07:33:47;5.00;62.80
11387;DHT22;5748;53.102;8.456;2024-03-08T07:36:15;5.10;62.80
11387;DHT22;5748;53.102;8.456;2024-03-08T07:38:42;5.40;63.10
11387;DHT22;5748;53.102;8.456;2024-03-08T07:41:12;5.40;63.10
11387;DHT22;5748;53.102;8.456;2024-03-08T07:43:39;5.50;63.90
11387;DHT22;5748;53.102;8.456;2024-03-08T07:46:09;5.60;63.40
11387;DHT22;5748;53.102;8.456;2024-03-08T07:48:36;5.80;63.70
11387;DHT22;5748;53.102;8.456;2024-03-08T07:51:04;5.90;63.70
11387;DHT22;5748;53.102;8.456;2024-03-08T07:53:31;6.10;63.70
11387;DHT22;5748;53.102;8.456;2024-03-08T07:55:58;6.30;63.70
11387;DHT22;5748;53.102;8.456;2024-03-08T07:58:25;6.50;63.50
11387;DHT22;5748;53.102;8.456;2024-03-08T08:00:53;6.70;63.40
11387;DHT22;5748;53.102;8.456;2024-03-08T08:03:22;6.90;63.70
11387;DHT22;5748;53.102;8.456;2024-03-08T08:05:49;7.10;63.20
11387;DHT22;5748;53.102;8.456;2024-03-08T08:08:16;7.40;63.20
11387;DHT22;5748;53.102;8.456;2024-03-08T08:10:43;7.60;63.30
11387;DHT22;5748;53.102;8.456;2024-03-08T08:13:10;7.90;63.30
11387;DHT22;5748;53.102;8.456;2024-03-08T08:15:38;8.10;62.70
11387;DHT22;5748;53.102;8.456;2024-03-08T08:18:05;8.40;63.30
11387;DHT22;5748;53.102;8.456;2024-03-08T08:20:36;8.70;63.40
11387;DHT22;5748;53.102;8.456;2024-03-08T08:23:04;8.90;63.30
11387;DHT22;5748;53.102;8.456;2024-03-08T08:25:31;9.20;62.70
11387;DHT22;5748;53.102;8.456;2024-03-08T08:28:00;9.50;62.90
11387;DHT22;5748;53.102;8.456;2024-03-08T08:30:29;9.90;63.20
11387;DHT22;5748;53.102;8.456;2024-03-08T08:32:58;10.20;61.00
11387;DHT22;5748;53.102;8.456;2024-03-08T08:35:26;10.40;60.70
11387;DHT22;5748;53.102;8.456;2024-03-08T08:37:55;10.70;60.70
11387;DHT22;5748;53.102;8.456;2024-03-08T08:40:24;10.90;60.50
11387;DHT22;5748;53.102;8.456;2024-03-08T08:42:51;11.20;60.70
11387;DHT22;5748;53.102;8.456;2024-03-08T08:45:19;11.50;61.10
11387;DHT22;5748;53.102;8.456;2024-03-08T08:47:46;11.80;59.60
11387;DHT22;5748;53.102;8.456;2024-03-08T08:50:15;12.00;58.60
11387;DHT22;5748;53.102;8.456;2024-03-08T08:52:48;12.40;56.20
11387;DHT22;5748;53.102;8.456;2024-03-08T08:55:17;12.40;59.30
11387;DHT22;5748;53.102;8.456;2024-03-08T08:57:46;12.70;58.10
11387;DHT22;5748;53.102;8.456;2024-03-08T09:00:14;12.80;59.00
11387;DHT22;5748;53.102;8.456;2024-03-08T09:02:42;13.10;60.30
11387;DHT22;5748;53.102;8.456;2024-03-08T09:05:09;13.30;58.40
11387;DHT22;5748;53.102;8.456;2024-03-08T09:07:37;13.60;58.60
11387;DHT22;5748;53.102;8.456;2024-03-08T09:10:04;13.80;59.20
11387;DHT22;5748;53.102;8.456;2024-03-08T09:12:33;14.10;55.20
11387;DHT22;5748;53.102;8.456;2024-03-08T09:15:00;14.10;56.00
11387;DHT22;5748;53.102;8.456;2024-03-08T09:17:27;14.30;57.10
11387;DHT22;5748;53.102;8.456;2024-03-08T09:19:55;14.40;56.20
11387;DHT22;5748;53.102;8.456;2024-03-08T09:22:23;14.60;58.00
11387;DHT22;5748;53.102;8.456;2024-03-08T09:24:50;14.80;58.70
11387;DHT22;5748;53.102;8.456;2024-03-08T09:27:17;15.00;56.80
11387;DHT22;5748;53.102;8.456;2024-03-08T09:29:46;15.20;57.40
11387;DHT22;5748;53.102;8.456;2024-03-08T09:32:13;15.50;57.70
11387;DHT22;5748;53.102;8.456;2024-03-08T09:34:40;15.70;58.30
11387;DHT22;5748;53.102;8.456;2024-03-08T09:37:07;15.90;57.30
11387;DHT22;5748;53.102;8.456;2024-03-08T09:39:35;16.10;56.50
11387;DHT22;5748;53.102;8.456;2024-03-08T09:42:02;16.30;56.90
11387;DHT22;5748;53.102;8.456;2024-03-08T09:44:31;16.60;57.40
11387;DHT22;5748;53.102;8.456;2024-03-08T09:46:59;16.80;56.80
11387;DHT22;5748;53.102;8.456;2024-03-08T09:49:27;17.00;57.20
11387;DHT22;5748;53.102;8.456;2024-03-08T09:51:55;17.10;56.10
11387;DHT22;5748;53.102;8.456;2024-03-08T09:54:23;17.30;56.40
11387;DHT22;5748;53.102;8.456;2024-03-08T09:56:52;17.50;56.50
11387;DHT22;5748;53.102;8.456;2024-03-08T09:59:19;17.70;55.50
11387;DHT22;5748;53.102;8.456;2024-03-08T10:02:15;17.80;55.20
11387;DHT22;5748;53.102;8.456;2024-03-08T10:04:43;17.90;55.30
11387;DHT22;5748;53.102;8.456;2024-03-08T10:07:12;18.00;54.40
11387;DHT22;5748;53.102;8.456;2024-03-08T10:09:40;18.10;55.20
11387;DHT22;5748;53.102;8.456;2024-03-08T10:12:12;18.30;55.00
11387;DHT22;5748;53.102;8.456;2024-03-08T10:14:41;18.40;54.00
11387;DHT22;5748;53.102;8.456;2024-03-08T10:17:08;18.60;53.20
11387;DHT22;5748;53.102;8.456;2024-03-08T10:19:37;18.70;52.80
11387;DHT22;5748;53.102;8.456;2024-03-08T10:22:04;18.70;52.80
11387;DHT22;5748;53.102;8.456;2024-03-08T10:24:32;18.80;54.20
11387;DHT22;5748;53.102;8.456;2024-03-08T10:27:00;19.00;54.30
11387;DHT22;5748;53.102;8.456;2024-03-08T10:29:30;19.10;52.60
11387;DHT22;5748;53.102;8.456;2024-03-08T10:31:58;19.20;51.30
11387;DHT22;5748;53.102;8.456;2024-03-08T10:34:25;19.30;51.70
11387;DHT22;5748;53.102;8.456;2024-03-08T10:36:58;19.40;52.90
11387;DHT22;5748;53.102;8.456;2024-03-08T10:39:33;19.50;50.80
11387;DHT22;5748;53.102;8.456;2024-03-08T10:42:03;19.50;51.00
11387;DHT22;5748;53.102;8.456;2024-03-08T10:44:43;19.60;51.00
11387;DHT22;5748;53.102;8.456;2024-03-08T10:47:26;19.70;50.60
11387;DHT22;5748;53.102;8.456;2024-03-08T10:50:02;19.80;51.00
11387;DHT22;5748;53.102;8.456;2024-03-08T10:52:36;20.00;51.40
11387;DHT22;5748;53.102;8.456;2024-03-08T10:55:05;20.10;51.40
11387;DHT22;5748;53.102;8.456;2024-03-08T10:57:38;20.20;52.10
11387;DHT22;5748;53.102;8.456;2024-03-08T11:00:07;20.40;52.00
11387;DHT22;5748;53.102;8.456;2024-03-08T11:02:36;20.60;52.90
11387;DHT22;5748;53.102;8.456;2024-03-08T11:05:04;20.80;51.20
11387;DHT22;5748;53.102;8.456;2024-03-08T11:07:33;21.00;51.70
11387;DHT22;5748;53.102;8.456;2024-03-08T11:10:03;21.20;53.00
11387;DHT22;5748;53.102;8.456;2024-03-08T11:12:36;21.40;51.00
11387;DHT22;5748;53.102;8.456;2024-03-08T11:15:10;21.70;50.20
11387;DHT22;5748;53.102;8.456;2024-03-08T11:17:46;21.90;51.10
11387;DHT22;5748;53.102;8.456;2024-03-08T11:20:15;22.10;50.70
11387;DHT22;5748;53.102;8.456;2024-03-08T11:22:48;22.30;49.00
11387;DHT22;5748;53.102;8.456;2024-03-08T11:25:32;22.50;49.30
11387;DHT22;5748;53.102;8.456;2024-03-08T11:28:13;22.70;45.90
11387;DHT22;5748;53.102;8.456;2024-03-08T11:30:44;23.00;48.60
11387;DHT22;5748;53.102;8.456;2024-03-08T11:33:14;23.40;51.50
11387;DHT22;5748;53.102;8.456;2024-03-08T11:35:42;23.60;49.30
11387;DHT22;5748;53.102;8.456;2024-03-08T11:38:12;23.80;49.80
11387;DHT22;5748;53.102;8.456;2024-03-08T11:40:42;24.00;48.80
11387;DHT22;5748;53.102;8.456;2024-03-08T11:43:09;24.30;49.90
11387;DHT22;5748;53.102;8.456;2024-03-08T11:45:36;24.40;49.50
11387;DHT22;5748;53.102;8.456;2024-03-08T11:48:04;24.60;48.70
11387;DHT22;5748;53.102;8.456;2024-03-08T11:50:32;24.80;49.10
11387;DHT22;5748;53.102;8.456;2024-03-08T11:53:03;24.90;46.70
11387;DHT22;5748;53.102;8.456;2024-03-08T11:55:32;24.90;46.20
11387;DHT22;5748;53.102;8.456;2024-03-08T11:58:02;24.90;45.90
11387;DHT22;5748;53.102;8.456;2024-03-08T12:00:30;24.80;45.60
11387;DHT22;5748;53.102;8.456;2024-03-08T12:03:04;24.70;44.40
11387;DHT22;5748;53.102;8.456;2024-03-08T12:05:33;24.50;43.40
11387;DHT22;5748;53.102;8.456;2024-03-08T12:08:00;24.40;45.10
11387;DHT22;5748;53.102;8.456;2024-03-08T12:10:28;23.30;43.00
11387;DHT22;5748;53.102;8.456;2024-03-08T12:12:58;24.10;44.90
11387;DHT22;5748;53.102;8.456;2024-03-08T12:15:26;24.00;44.20
11387;DHT22;5748;53.102;8.456;2024-03-08T12:17:55;23.90;45.70
11387;DHT22;5748;53.102;8.456;2024-03-08T12:20:24;23.90;47.10
11387;DHT22;5748;53.102;8.456;2024-03-08T12:22:52;24.00;48.00
11387;DHT22;5748;53.102;8.456;2024-03-08T12:25:22;24.30;47.70
11387;DHT22;5748;53.102;8.456;2024-03-08T12:27:49;24.50;46.70
11387;DHT22;5748;53.102;8.456;2024-03-08T12:30:21;24.70;47.90
11387;DHT22;5748;53.102;8.456;2024-03-08T12:32:51;25.00;46.50
11387;DHT22;5748;53.102;8.456;2024-03-08T12:35:20;25.20;47.10
11387;DHT22;5748;53.102;8.456;2024-03-08T12:37:50;25.30;45.90
11387;DHT22;5748;53.102;8.456;2024-03-08T12:40:19;25.40;45.20
11387;DHT22;5748;53.102;8.456;2024-03-08T12:42:46;25.50;45.00
11387;DHT22;5748;53.102;8.456;2024-03-08T12:45:14;25.50;44.10
11387;DHT22;5748;53.102;8.456;2024-03-08T12:47:42;25.50;42.50
11387;DHT22;5748;53.102;8.456;2024-03-08T12:50:10;25.50;42.00
11387;DHT22;5748;53.102;8.456;2024-03-08T12:52:37;25.40;42.40
11387;DHT22;5748;53.102;8.456;2024-03-08T12:55:05;25.30;43.40
11387;DHT22;5748;53.102;8.456;2024-03-08T12:57:34;25.30;42.70
11387;DHT22;5748;53.102;8.456;2024-03-08T13:00:02;25.30;43.50
11387;DHT22;5748;53.102;8.456;2024-03-08T13:02:29;25.30;42.90
11387;DHT22;5748;53.102;8.456;2024-03-08T13:04:59;25.10;41.60
11387;DHT22;5748;53.102;8.456;2024-03-08T13:07:26;25.10;41.90
11387;DHT22;5748;53.102;8.456;2024-03-08T13:09:53;25.00;42.30
11387;DHT22;5748;53.102;8.456;2024-03-08T13:12:22;24.80;42.60
11387;DHT22;5748;53.102;8.456;2024-03-08T13:14:49;24.70;41.70
11387;DHT22;5748;53.102;8.456;2024-03-08T13:17:17;24.50;41.20
11387;DHT22;5748;53.102;8.456;2024-03-08T13:19:44;24.30;40.80
11387;DHT22;5748;53.102;8.456;2024-03-08T13:22:12;24.00;40.50
11387;DHT22;5748;53.102;8.456;2024-03-08T13:24:42;23.70;40.00
11387;DHT22;5748;53.102;8.456;2024-03-08T13:27:11;23.40;39.60
11387;DHT22;5748;53.102;8.456;2024-03-08T13:29:48;22.90;39.30
11387;DHT22;5748;53.102;8.456;2024-03-08T13:32:15;22.50;39.90
11387;DHT22;5748;53.102;8.456;2024-03-08T13:34:43;22.10;39.00
11387;DHT22;5748;53.102;8.456;2024-03-08T13:37:12;21.70;38.50
11387;DHT22;5748;53.102;8.456;2024-03-08T13:39:41;21.20;39.40
11387;DHT22;5748;53.102;8.456;2024-03-08T13:42:10;20.90;38.90
11387;DHT22;5748;53.102;8.456;2024-03-08T13:44:43;20.50;38.30
11387;DHT22;5748;53.102;8.456;2024-03-08T13:47:11;20.20;38.80
11387;DHT22;5748;53.102;8.456;2024-03-08T13:49:39;20.00;39.20
11387;DHT22;5748;53.102;8.456;2024-03-08T13:52:06;19.70;39.50
11387;DHT22;5748;53.102;8.456;2024-03-08T13:54:36;19.60;40.00
11387;DHT22;5748;53.102;8.456;2024-03-08T13:57:04;19.40;39.80
11387;DHT22;5748;53.102;8.456;2024-03-08T13:59:32;19.20;39.40
11387;DHT22;5748;53.102;8.456;2024-03-08T14:02:00;19.10;39.60
11387;DHT22;5748;53.102;8.456;2024-03-08T14:04:28;18.90;40.10
11387;DHT22;5748;53.102;8.456;2024-03-08T14:06:55;18.40;39.70
11387;DHT22;5748;53.102;8.456;2024-03-08T14:09:28;18.60;39.50
11387;DHT22;5748;53.102;8.456;2024-03-08T14:11:57;18.40;39.50
11387;DHT22;5748;53.102;8.456;2024-03-08T14:14:25;18.10;39.60
11387;DHT22;5748;53.102;8.456;2024-03-08T14:16:52;17.90;39.70
11387;DHT22;5748;53.102;8.456;2024-03-08T14:19:20;17.70;39.50
11387;DHT22;5748;53.102;8.456;2024-03-08T14:21:47;17.50;39.20
11387;DHT22;5748;53.102;8.456;2024-03-08T14:24:15;17.30;39.40
11387;DHT22;5748;53.102;8.456;2024-03-08T14:26:42;17.10;39.90
11387;DHT22;5748;53.102;8.456;2024-03-08T14:29:11;17.00;40.00
11387;DHT22;5748;53.102;8.456;2024-03-08T14:31:38;16.90;40.00
11387;DHT22;5748;53.102;8.456;2024-03-08T14:34:06;16.80;40.70
11387;DHT22;5748;53.102;8.456;2024-03-08T14:36:33;16.80;40.50
11387;DHT22;5748;53.102;8.456;2024-03-08T14:39:00;16.80;40.60
11387;DHT22;5748;53.102;8.456;2024-03-08T14:41:27;16.70;40.50
11387;DHT22;5748;53.102;8.456;2024-03-08T14:43:55;16.70;40.20
11387;DHT22;5748;53.102;8.456;2024-03-08T14:46:24;16.60;40.00
11387;DHT22;5748;53.102;8.456;2024-03-08T14:48:52;16.40;40.30
11387;DHT22;5748;53.102;8.456;2024-03-08T14:51:19;16.30;39.90
11387;DHT22;5748;53.102;8.456;2024-03-08T14:53:47;16.20;39.90
11387;DHT22;5748;53.102;8.456;2024-03-08T14:56:15;16.10;40.20
11387;DHT22;5748;53.102;8.456;2024-03-08T14:58:43;16.00;40.40
11387;DHT22;5748;53.102;8.456;2024-03-08T15:01:10;15.80;40.60
11387;DHT22;5748;53.102;8.456;2024-03-08T15:03:41;15.70;40.40
11387;DHT22;5748;53.102;8.456;2024-03-08T15:06:08;15.70;40.70
11387;DHT22;5748;53.102;8.456;2024-03-08T15:08:36;15.60;40.30
11387;DHT22;5748;53.102;8.456;2024-03-08T15:11:03;15.50;40.70
11387;DHT22;5748;53.102;8.456;2024-03-08T15:13:31;15.40;40.70
11387;DHT22;5748;53.102;8.456;2024-03-08T15:16:05;15.30;40.70
11387;DHT22;5748;53.102;8.456;2024-03-08T15:18:33;15.30;41.20
11387;DHT22;5748;53.102;8.456;2024-03-08T15:21:04;15.30;41.40
11387;DHT22;5748;53.102;8.456;2024-03-08T15:23:33;15.20;41.40
11387;DHT22;5748;53.102;8.456;2024-03-08T15:26:01;15.10;41.20
11387;DHT22;5748;53.102;8.456;2024-03-08T15:28:29;15.10;41.00
11387;DHT22;5748;53.102;8.456;2024-03-08T15:31:03;15.00;41.00
11387;DHT22;5748;53.102;8.456;2024-03-08T15:33:34;14.90;40.90
11387;DHT22;5748;53.102;8.456;2024-03-08T15:36:08;14.80;40.50
11387;DHT22;5748;53.102;8.456;2024-03-08T15:38:36;14.70;41.50
11387;DHT22;5748;53.102;8.456;2024-03-08T15:41:04;14.70;41.20
11387;DHT22;5748;53.102;8.456;2024-03-08T15:43:35;14.60;41.30
11387;DHT22;5748;53.102;8.456;2024-03-08T15:46:03;14.60;41.60
11387;DHT22;5748;53.102;8.456;2024-03-08T15:48:31;14.50;41.70
11387;DHT22;5748;53.102;8.456;2024-03-08T15:50:59;14.40;41.60
11387;DHT22;5748;53.102;8.456;2024-03-08T15:53:29;14.40;41.60
11387;DHT22;5748;53.102;8.456;2024-03-08T15:55:56;14.30;41.60
11387;DHT22;5748;53.102;8.456;2024-03-08T15:58:23;14.20;41.60
11387;DHT22;5748;53.102;8.456;2024-03-08T16:00:51;14.20;41.70
11387;DHT22;5748;53.102;8.456;2024-03-08T16:03:19;14.10;41.80
11387;DHT22;5748;53.102;8.456;2024-03-08T16:05:46;14.00;41.80
11387;DHT22;5748;53.102;8.456;2024-03-08T16:08:15;14.00;41.80